Time;durP1;ratioP1;P1;durP2;ratioP2;P2;SDS_P1;SDS_P2;PMS_P1;PMS_P2;Temp;Humidity;BMP_temperature;BMP_pressure;BME280_temperature;BME280_humidity;BME280_pressure;Samples;Min_cycle;Max_cycle;Signal;HPM_P1;HPM_P2
2021/06/01 00:01:44;;;;;;;4.10;2.90;;;13.30;73.00;;;;;;3580083;40;20041;-70
2021/06/01 00:04:11;;;;;;;5.75;3.35;;;13.30;73.70;;;;;;3578408;40;20808;-70
2021/06/01 00:06:38;;;;;;;4.03;3.17;;;13.30;74.70;;;;;;3576761;40;20044;-69
2021/06/01 00:09:07;;;;;;;3.50;2.70;;;13.20;75.20;;;;;;3575177;40;20041;-70
2021/06/01 00:11:32;;;;;;;4.13;2.83;;;13.30;75.90;;;;;;3572230;40;20037;-69
2021/06/01 00:13:58;;;;;;;4.70;3.40;;;13.30;75.80;;;;;;3573085;40;20534;-71
2021/06/01 00:16:24;;;;;;;4.18;3.20;;;13.30;75.70;;;;;;3575091;40;20040;-70
2021/06/01 00:18:50;;;;;;;4.78;3.00;;;13.40;77.10;;;;;;3577171;40;20088;-69
2021/06/01 00:21:16;;;;;;;4.43;3.40;;;13.40;78.30;;;;;;3578945;40;20035;-69
2021/06/01 00:23:43;;;;;;;5.22;2.85;;;13.50;79.40;;;;;;3580545;40;20025;-70
2021/06/01 00:26:11;;;;;;;5.88;2.80;;;13.50;73.80;;;;;;3569863;40;20053;-69
2021/06/01 00:28:37;;;;;;;3.33;2.85;;;13.40;73.30;;;;;;3572991;40;20323;-69
2021/06/01 00:31:03;;;;;;;7.93;3.20;;;13.40;74.60;;;;;;3576005;40;20035;-69
2021/06/01 00:33:29;;;;;;;3.72;2.83;;;13.40;76.40;;;;;;3577336;40;20108;-70
2021/06/01 00:35:55;;;;;;;4.38;2.78;;;13.40;77.70;;;;;;3579860;40;20029;-70
2021/06/01 00:38:20;;;;;;;3.05;2.72;;;13.40;77.40;;;;;;3581798;40;20032;-69
2021/06/01 00:40:46;;;;;;;3.42;3.13;;;13.40;77.50;;;;;;3579590;40;20024;-71
2021/06/01 00:43:12;;;;;;;6.55;3.35;;;13.50;78.70;;;;;;3578338;40;20029;-70
2021/06/01 00:45:38;;;;;;;4.05;2.97;;;13.50;79.50;;;;;;3577100;40;20043;-70
2021/06/01 00:48:05;;;;;;;3.38;2.55;;;13.50;77.60;;;;;;3579623;40;20056;-69
2021/06/01 00:50:30;;;;;;;3.85;2.70;;;13.50;74.80;;;;;;3580970;40;20041;-68
2021/06/01 00:52:57;;;;;;;3.83;2.83;;;13.40;72.00;;;;;;3581084;40;20025;-69
2021/06/01 00:55:23;;;;;;;3.55;2.60;;;13.40;72.00;;;;;;3579995;40;20642;-69
2021/06/01 00:57:50;;;;;;;3.40;2.60;;;13.30;72.10;;;;;;3576959;40;20323;-70
2021/06/01 01:02:56;;;;;;;6.15;3.30;;;13.10;73.10;;;;;;3572406;40;20118;-69
2021/06/01 01:05:25;;;;;;;3.72;2.97;;;13.00;73.30;;;;;;3572284;40;20060;-69
2021/06/01 01:08:06;;;;;;;3.25;2.55;;;12.90;73.60;;;;;;3573513;40;20033;-70
2021/06/01 01:10:36;;;;;;;5.65;2.60;;;12.80;73.80;;;;;;3579027;40;20040;-69
2021/06/01 01:13:05;;;;;;;3.63;2.63;;;12.80;74.00;;;;;;3574497;40;20025;-69
2021/06/01 01:15:33;;;;;;;5.38;2.58;;;12.60;74.20;;;;;;3572499;40;20049;-68
2021/06/01 01:18:07;;;;;;;3.45;2.55;;;12.60;74.50;;;;;;3572464;40;20029;-69
2021/06/01 01:20:53;;;;;;;3.05;2.70;;;12.50;74.70;;;;;;3573475;40;20025;-69
2021/06/01 01:23:21;;;;;;;3.13;2.65;;;12.40;75.20;;;;;;3575866;40;20048;-70
2021/06/01 01:26:05;;;;;;;4.50;2.50;;;12.40;76.10;;;;;;3577166;40;20035;-69
2021/06/01 01:28:47;;;;;;;4.47;2.78;;;12.30;76.60;;;;;;3579636;40;20021;-69
2021/06/01 01:31:25;;;;;;;3.88;2.72;;;12.30;77.70;;;;;;3580827;40;20032;-70
2021/06/01 01:33:51;;;;;;;4.82;2.80;;;12.20;79.20;;;;;;3578574;40;20057;-69
2021/06/01 01:36:18;;;;;;;4.18;3.22;;;12.20;79.40;;;;;;3578021;40;20104;-70
2021/06/01 01:38:45;;;;;;;3.70;3.25;;;12.30;79.80;;;;;;3576249;40;20099;-70
2021/06/01 01:41:13;;;;;;;3.88;3.33;;;12.30;79.20;;;;;;3574128;40;20030;-70
2021/06/01 01:43:41;;;;;;;5.78;3.05;;;12.30;79.10;;;;;;3571054;40;20129;-69
2021/06/01 01:49:01;;;;;;;4.32;2.70;;;12.20;79.50;;;;;;3573906;40;20033;-69
2021/06/01 01:51:44;;;;;;;5.45;2.92;;;12.20;80.30;;;;;;3576355;40;20052;-70
2021/06/01 01:54:16;;;;;;;6.97;3.13;;;12.20;81.00;;;;;;3575102;40;20044;-69
2021/06/01 01:56:46;;;;;;;6.07;3.53;;;12.20;81.30;;;;;;3574271;40;20827;-69
2021/06/01 01:59:18;;;;;;;3.58;2.85;;;12.20;81.60;;;;;;3578853;40;20040;-69
2021/06/01 02:01:47;;;;;;;3.17;2.72;;;12.20;81.80;;;;;;3572185;40;20036;-69
2021/06/01 02:04:15;;;;;;;4.03;2.90;;;12.20;80.10;;;;;;3573392;40;20040;-69
2021/06/01 02:06:41;;;;;;;3.97;3.08;;;12.20;79.00;;;;;;3575505;40;20028;-69
2021/06/01 02:09:08;;;;;;;3.78;2.97;;;12.30;79.20;;;;;;3574294;40;20029;-69
2021/06/01 02:11:34;;;;;;;4.72;3.13;;;12.30;81.00;;;;;;3580500;40;20137;-69
2021/06/01 02:14:03;;;;;;;6.25;2.90;;;12.40;78.90;;;;;;3575784;40;20029;-70
2021/06/01 02:16:31;;;;;;;3.63;2.83;;;12.40;78.10;;;;;;3574966;40;20041;-70
2021/06/01 02:18:57;;;;;;;2.67;2.40;;;12.40;79.30;;;;;;3574726;40;20033;-70
2021/06/01 02:21:47;;;;;;;5.47;2.75;;;12.30;77.50;;;;;;3573356;40;20568;-69
2021/06/01 02:24:34;;;;;;;4.40;3.17;;;12.30;77.80;;;;;;3569338;40;20029;-70
2021/06/01 02:27:15;;;;;;;5.72;3.10;;;12.30;77.20;;;;;;3571192;40;20036;-70
2021/06/01 02:29:49;;;;;;;5.45;2.83;;;12.20;76.40;;;;;;3575475;40;20068;-69
2021/06/01 02:32:18;;;;;;;4.93;2.97;;;12.20;77.10;;;;;;3574626;40;20032;-70
2021/06/01 02:34:46;;;;;;;3.72;2.72;;;12.20;78.10;;;;;;3575489;40;20082;-69
2021/06/01 02:37:12;;;;;;;4.38;2.78;;;12.20;78.50;;;;;;3575947;40;20021;-70
2021/06/01 02:39:39;;;;;;;4.00;2.88;;;12.10;78.40;;;;;;3575350;40;20386;-69
2021/06/01 02:42:06;;;;;;;3.70;3.05;;;12.10;79.10;;;;;;3577916;40;20030;-69
2021/06/01 02:44:34;;;;;;;6.32;3.10;;;12.00;78.70;;;;;;3573007;40;20032;-69
2021/06/01 02:47:04;;;;;;;7.55;3.40;;;12.00;77.10;;;;;;3573163;40;20029;-70
2021/06/01 02:49:30;;;;;;;3.70;2.85;;;12.00;76.90;;;;;;3571911;40;20117;-70
2021/06/01 02:51:57;;;;;;;7.18;3.33;;;11.90;78.30;;;;;;3570081;40;20036;-69
2021/06/01 02:54:24;;;;;;;4.80;2.97;;;11.90;79.30;;;;;;3575400;40;20765;-69
2021/06/01 02:56:53;;;;;;;3.65;3.10;;;11.90;77.80;;;;;;3576802;40;20055;-70
2021/06/01 02:59:20;;;;;;;5.63;2.92;;;12.00;77.80;;;;;;3575092;40;20031;-69
2021/06/01 03:01:50;;;;;;;5.05;3.15;;;11.90;78.20;;;;;;3575773;40;20025;-68
2021/06/01 03:04:16;;;;;;;3.97;3.03;;;11.90;78.60;;;;;;3580773;40;20035;-70
2021/06/01 03:06:43;;;;;;;3.92;2.90;;;11.90;78.20;;;;;;3579220;40;20032;-70
2021/06/01 03:09:09;;;;;;;3.38;2.90;;;11.90;77.50;;;;;;3573128;40;20051;-68
2021/06/01 03:11:36;;;;;;;4.05;3.22;;;11.90;77.30;;;;;;3574111;40;20080;-70
2021/06/01 03:14:03;;;;;;;3.63;2.78;;;11.80;77.80;;;;;;3575500;40;20033;-70
2021/06/01 03:16:28;;;;;;;4.75;2.95;;;11.80;78.30;;;;;;3573325;40;20314;-68
2021/06/01 03:18:55;;;;;;;3.83;2.90;;;11.80;78.70;;;;;;3576588;40;20033;-69
2021/06/01 03:21:20;;;;;;;3.83;3.08;;;11.70;79.20;;;;;;3574581;40;20036;-69
2021/06/01 03:23:46;;;;;;;3.53;2.85;;;11.70;79.70;;;;;;3573770;40;20028;-70
2021/06/01 03:26:12;;;;;;;3.40;2.80;;;11.70;79.80;;;;;;3575249;40;20025;-69
2021/06/01 03:28:38;;;;;;;3.80;3.20;;;11.70;79.10;;;;;;3572843;40;20742;-70
2021/06/01 03:31:06;;;;;;;5.13;3.45;;;11.70;79.00;;;;;;3568262;40;20025;-69
2021/06/01 03:33:33;;;;;;;6.97;3.65;;;11.70;79.00;;;;;;3573811;40;20064;-70
2021/06/01 03:35:58;;;;;;;7.30;3.80;;;11.60;79.70;;;;;;3573343;40;20065;-69
2021/06/01 03:38:25;;;;;;;6.28;3.80;;;11.50;80.50;;;;;;3573508;40;20391;-70
2021/06/01 03:40:51;;;;;;;5.75;4.00;;;11.60;81.50;;;;;;3571869;40;20043;-69
2021/06/01 03:43:17;;;;;;;4.50;3.33;;;11.60;82.20;;;;;;3573251;40;20041;-69
2021/06/01 03:45:43;;;;;;;5.10;3.97;;;11.60;82.40;;;;;;3572453;40;20123;-69
2021/06/01 03:48:09;;;;;;;4.70;3.83;;;11.60;82.60;;;;;;3576214;40;20423;-69
2021/06/01 03:50:35;;;;;;;7.30;3.80;;;11.70;82.70;;;;;;3574159;40;20024;-69
2021/06/01 03:53:02;;;;;;;8.10;4.00;;;11.80;82.80;;;;;;3571867;40;20031;-69
2021/06/01 03:55:28;;;;;;;4.75;3.75;;;11.80;82.90;;;;;;3577148;40;20496;-70
2021/06/01 03:57:53;;;;;;;5.45;4.05;;;11.90;83.00;;;;;;3574921;40;20122;-69
2021/06/01 04:00:24;;;;;;;5.47;3.70;;;11.90;82.90;;;;;;3574568;40;20089;-68
2021/06/01 04:02:50;;;;;;;5.40;3.83;;;11.90;83.20;;;;;;3573468;40;20022;-70
2021/06/01 04:05:16;;;;;;;6.07;3.88;;;12.00;83.30;;;;;;3574702;40;20126;-70
2021/06/01 04:07:45;;;;;;;5.22;4.30;;;12.00;83.70;;;;;;3577144;40;20033;-69
2021/06/01 04:10:11;;;;;;;6.15;4.68;;;12.10;84.20;;;;;;3572913;40;20037;-70
2021/06/01 04:12:37;;;;;;;5.60;4.60;;;12.20;84.20;;;;;;3571364;40;20052;-70
2021/06/01 04:15:03;;;;;;;7.03;4.00;;;12.30;83.50;;;;;;3575373;40;20342;-70
2021/06/01 04:17:29;;;;;;;5.85;3.78;;;12.40;82.20;;;;;;3573450;40;20041;-69
2021/06/01 04:19:55;;;;;;;5.60;3.40;;;12.50;81.00;;;;;;3573287;40;20047;-70
2021/06/01 04:22:21;;;;;;;5.47;3.85;;;12.50;80.60;;;;;;3575444;40;20052;-70
2021/06/01 04:24:46;;;;;;;4.80;3.75;;;12.60;81.10;;;;;;3571974;40;20600;-69
2021/06/01 04:27:12;;;;;;;4.05;3.65;;;12.70;81.50;;;;;;3573452;40;20176;-69
2021/06/01 04:29:38;;;;;;;6.80;4.05;;;12.80;81.30;;;;;;3572993;40;20029;-69
2021/06/01 04:32:04;;;;;;;5.97;3.67;;;12.90;81.30;;;;;;3573874;40;20408;-70
2021/06/01 04:34:30;;;;;;;6.38;3.92;;;13.00;81.40;;;;;;3575345;40;20104;-70
2021/06/01 04:36:55;;;;;;;7.80;4.60;;;13.10;82.00;;;;;;3572190;40;20040;-69
2021/06/01 04:39:21;;;;;;;8.75;5.15;;;13.10;82.40;;;;;;3574963;40;20703;-69
2021/06/01 04:41:47;;;;;;;6.85;5.25;;;13.30;82.40;;;;;;3573639;40;20024;-69
2021/06/01 04:44:13;;;;;;;8.50;5.05;;;13.40;82.30;;;;;;3576813;40;20098;-70
2021/06/01 04:46:38;;;;;;;6.10;5.22;;;13.60;82.50;;;;;;3574547;40;20029;-69
2021/06/01 04:49:04;;;;;;;7.78;5.28;;;13.70;82.50;;;;;;3577493;40;20025;-69
2021/06/01 04:51:30;;;;;;;9.77;6.00;;;13.90;82.30;;;;;;3566025;40;20044;-69
2021/06/01 04:53:58;;;;;;;8.80;6.07;;;14.00;81.90;;;;;;3576116;40;20405;-70
2021/06/01 04:56:25;;;;;;;11.02;5.57;;;14.10;81.90;;;;;;3574884;40;20037;-70
2021/06/01 04:58:50;;;;;;;6.88;5.28;;;14.30;82.00;;;;;;3577890;40;20065;-65
2021/06/01 05:01:17;;;;;;;7.60;5.60;;;14.40;81.60;;;;;;3578613;40;20021;-65
2021/06/01 05:03:42;;;;;;;7.55;5.72;;;14.50;81.60;;;;;;3572054;40;20029;-66
2021/06/01 05:06:08;;;;;;;7.40;6.00;;;14.60;81.20;;;;;;3573634;40;20434;-65
2021/06/01 05:08:35;;;;;;;10.25;5.40;;;14.70;80.80;;;;;;3575379;40;20428;-65
2021/06/01 05:11:02;;;;;;;7.32;5.80;;;14.90;80.50;;;;;;3576381;40;20025;-65
2021/06/01 05:13:27;;;;;;;7.95;5.60;;;15.00;80.10;;;;;;3575308;40;20025;-65
2021/06/01 05:15:54;;;;;;;11.23;6.72;;;15.10;79.50;;;;;;3573983;40;20052;-70
2021/06/01 05:18:20;;;;;;;8.48;6.60;;;15.30;78.60;;;;;;3575075;40;20563;-69
2021/06/01 05:20:46;;;;;;;10.65;6.40;;;15.40;77.70;;;;;;3578407;40;20028;-69
2021/06/01 05:23:13;;;;;;;11.55;7.38;;;15.60;76.90;;;;;;3576853;40;20044;-70
2021/06/01 05:25:39;;;;;;;7.97;6.40;;;15.70;76.10;;;;;;3576418;40;20439;-70
2021/06/01 05:28:05;;;;;;;10.60;7.80;;;15.90;75.60;;;;;;3574718;40;20021;-69
2021/06/01 05:30:38;;;;;;;11.55;6.80;;;16.10;75.00;;;;;;3570157;40;20041;-69
2021/06/01 05:35:31;;;;;;;8.50;6.68;;;16.30;74.10;;;;;;3574810;40;20397;-70
2021/06/01 05:38:01;;;;;;;9.10;6.20;;;16.50;73.80;;;;;;3574292;40;20081;-68
2021/06/01 05:40:26;;;;;;;10.07;6.65;;;16.60;73.20;;;;;;3570767;40;20044;-69
2021/06/01 05:42:52;;;;;;;10.32;6.70;;;16.80;73.10;;;;;;3570117;40;20025;-70
2021/06/01 05:45:18;;;;;;;8.63;6.07;;;16.90;73.00;;;;;;3573740;40;20040;-70
2021/06/01 05:47:44;;;;;;;10.05;7.07;;;17.00;72.70;;;;;;3574222;40;20027;-70
2021/06/01 05:50:09;;;;;;;9.60;6.97;;;17.10;72.50;;;;;;3573520;40;20025;-68
2021/06/01 05:52:35;;;;;;;7.80;6.22;;;17.30;72.20;;;;;;3573888;40;20072;-68
2021/06/01 05:55:04;;;;;;;8.73;6.00;;;17.40;71.30;;;;;;3578446;40;20118;-68
2021/06/01 05:57:30;;;;;;;11.13;6.20;;;17.50;70.20;;;;;;3569759;40;20182;-69
2021/06/01 05:59:56;;;;;;;8.70;5.47;;;17.70;70.10;;;;;;3572111;40;20045;-70
2021/06/01 06:02:22;;;;;;;6.80;5.22;;;17.80;69.60;;;;;;3573381;40;20088;-70
2021/06/01 06:04:47;;;;;;;7.43;5.32;;;18.00;69.20;;;;;;3572784;40;20048;-69
2021/06/01 06:07:13;;;;;;;8.68;5.55;;;18.40;68.20;;;;;;3572075;40;20033;-70
2021/06/01 06:09:39;;;;;;;8.93;5.65;;;18.60;67.50;;;;;;3570703;40;20040;-69
2021/06/01 06:12:05;;;;;;;10.55;6.13;;;18.70;67.10;;;;;;3573945;40;20341;-71
2021/06/01 06:14:31;;;;;;;5.32;4.80;;;18.70;67.60;;;;;;3572742;40;20025;-70
2021/06/01 06:17:02;;;;;;;8.25;5.55;;;18.70;67.40;;;;;;3574656;40;20025;-69
2021/06/01 06:19:28;;;;;;;6.07;5.22;;;18.70;67.60;;;;;;3573680;40;20048;-69
2021/06/01 06:21:54;;;;;;;6.07;5.32;;;18.70;67.60;;;;;;3576309;40;20020;-67
2021/06/01 06:24:20;;;;;;;6.00;4.75;;;18.60;68.60;;;;;;3576839;40;20052;-68
2021/06/01 06:26:45;;;;;;;6.25;5.30;;;18.60;69.70;;;;;;3573976;40;20439;-67
2021/06/01 06:29:11;;;;;;;7.95;5.30;;;18.60;69.20;;;;;;3575250;40;20386;-68
2021/06/01 06:31:38;;;;;;;8.50;6.07;;;18.60;69.00;;;;;;3575870;40;20314;-67
2021/06/01 06:34:04;;;;;;;8.13;5.40;;;18.60;69.10;;;;;;3573094;40;20140;-69
2021/06/01 06:36:30;;;;;;;7.22;5.32;;;18.60;69.00;;;;;;3576029;40;20520;-68
2021/06/01 06:38:55;;;;;;;12.25;7.90;;;18.70;68.10;;;;;;3571994;40;20044;-68
2021/06/01 06:41:21;;;;;;;8.77;6.47;;;18.80;67.60;;;;;;3575622;40;20544;-68
2021/06/01 06:43:52;;;;;;;7.00;5.70;;;18.80;67.30;;;;;;3574347;40;20033;-67
2021/06/01 06:48:50;;;;;;;9.85;6.40;;;19.00;66.40;;;;;;3573384;40;20025;-69
2021/06/01 06:51:16;;;;;;;11.70;7.18;;;19.00;66.80;;;;;;3576548;40;20029;-71
2021/06/01 06:53:51;;;;;;;9.30;6.25;;;19.00;66.70;;;;;;3572867;40;20125;-68
2021/06/01 06:56:21;;;;;;;8.98;5.90;;;19.10;66.00;;;;;;3573788;40;20117;-69
2021/06/01 06:58:47;;;;;;;7.68;5.57;;;19.20;65.80;;;;;;3573344;40;20419;-70
2021/06/01 07:01:13;;;;;;;8.63;5.53;;;19.30;64.80;;;;;;3576182;40;20048;-69
2021/06/01 07:03:39;;;;;;;8.93;6.00;;;19.40;64.10;;;;;;3573525;40;20028;-70
2021/06/01 07:06:06;;;;;;;11.43;7.03;;;19.50;63.60;;;;;;3573640;40;20040;-69
2021/06/01 07:08:32;;;;;;;7.78;5.65;;;19.60;63.00;;;;;;3574063;40;20036;-69
2021/06/01 07:10:59;;;;;;;10.48;5.80;;;19.80;63.00;;;;;;3573451;40;20083;-69
2021/06/01 07:13:31;;;;;;;6.60;5.50;;;19.90;63.00;;;;;;3569632;40;20021;-70
2021/06/01 07:15:56;;;;;;;7.97;5.72;;;20.10;61.80;;;;;;3569022;40;20834;-71
2021/06/01 07:18:23;;;;;;;8.82;5.45;;;20.20;60.80;;;;;;3569527;40;20025;-71
2021/06/01 07:20:49;;;;;;;11.45;5.28;;;20.30;61.20;;;;;;3565794;40;20084;-72
2021/06/01 07:23:14;;;;;;;9.63;5.40;;;20.40;61.10;;;;;;3574496;40;20036;-70
2021/06/01 07:25:40;;;;;;;8.15;5.65;;;20.50;60.50;;;;;;3572463;40;20110;-70
2021/06/01 07:28:06;;;;;;;10.05;5.47;;;20.60;60.70;;;;;;3574414;40;20036;-70
2021/06/01 07:30:32;;;;;;;6.40;4.93;;;20.70;60.30;;;;;;3577396;40;20024;-69
2021/06/01 07:32:59;;;;;;;7.78;4.97;;;20.70;60.70;;;;;;3573227;40;20029;-68
2021/06/01 07:35:25;;;;;;;7.35;5.40;;;20.70;60.40;;;;;;3571976;40;20501;-69
2021/06/01 07:37:52;;;;;;;7.47;5.47;;;20.80;60.50;;;;;;3573263;40;20186;-69
2021/06/01 07:40:18;;;;;;;7.85;5.43;;;20.90;60.60;;;;;;3570713;40;20048;-69
2021/06/01 07:42:44;;;;;;;6.57;4.40;;;20.90;60.40;;;;;;3570156;40;20033;-69
2021/06/01 07:45:11;;;;;;;8.70;5.38;;;21.00;60.30;;;;;;3571462;40;20030;-68
2021/06/01 07:47:36;;;;;;;5.30;4.65;;;21.10;60.20;;;;;;3572958;40;20543;-68
2021/06/01 07:50:06;;;;;;;7.63;4.88;;;21.10;59.90;;;;;;3573151;40;20049;-68
2021/06/01 07:52:31;;;;;;;7.55;4.63;;;21.20;59.30;;;;;;3572662;40;20063;-72
2021/06/01 07:54:57;;;;;;;10.18;4.85;;;21.30;59.90;;;;;;3574814;40;20021;-71
2021/06/01 07:57:23;;;;;;;7.63;5.03;;;21.30;60.00;;;;;;3574959;40;20025;-72
2021/06/01 07:59:49;;;;;;;5.75;5.03;;;21.40;60.00;;;;;;3574653;40;20017;-69
2021/06/01 08:02:15;;;;;;;10.40;6.68;;;21.40;59.70;;;;;;3575334;40;20013;-70
2021/06/01 08:04:41;;;;;;;12.95;5.95;;;21.50;59.80;;;;;;3572174;40;20040;-69
2021/06/01 08:07:08;;;;;;;6.15;4.85;;;21.50;58.60;;;;;;3572358;40;20025;-69
2021/06/01 08:09:35;;;;;;;7.00;4.70;;;21.60;58.20;;;;;;3574935;40;20407;-69
2021/06/01 08:12:03;;;;;;;14.82;7.65;;;21.70;58.70;;;;;;3573223;40;20045;-69
2021/06/01 08:14:30;;;;;;;7.63;5.05;;;21.80;58.00;;;;;;3576143;40;20040;-69
2021/06/01 08:16:56;;;;;;;6.35;4.65;;;21.80;56.40;;;;;;3578812;40;20040;-68
2021/06/01 08:19:28;;;;;;;9.48;5.20;;;21.80;56.70;;;;;;3580101;40;20028;-69
2021/06/01 08:21:58;;;;;;;8.88;4.45;;;22.00;56.70;;;;;;3581268;40;20028;-67
2021/06/01 08:24:24;;;;;;;8.43;4.80;;;22.00;55.60;;;;;;3580998;40;20113;-70
2021/06/01 08:26:50;;;;;;;5.53;3.35;;;22.10;56.40;;;;;;3576497;40;20080;-70
2021/06/01 08:29:17;;;;;;;7.20;4.13;;;22.20;54.10;;;;;;3574990;40;20423;-70
2021/06/01 08:31:43;;;;;;;5.45;3.83;;;22.30;53.80;;;;;;3577534;40;20069;-71
2021/06/01 08:34:09;;;;;;;5.80;3.60;;;22.40;54.80;;;;;;3576230;40;20056;-73
2021/06/01 08:36:36;;;;;;;8.55;4.25;;;22.50;53.00;;;;;;3576327;40;20129;-72
2021/06/01 08:39:05;;;;;;;6.68;4.03;;;22.70;52.50;;;;;;3576100;40;20033;-71
2021/06/01 08:41:32;;;;;;;4.45;3.55;;;22.90;52.70;;;;;;3576527;40;20064;-72
2021/06/01 08:44:03;;;;;;;5.57;3.15;;;23.00;50.00;;;;;;3574173;40;20029;-71
2021/06/01 08:46:30;;;;;;;6.55;3.40;;;23.00;49.80;;;;;;3575640;40;20052;-71
2021/06/01 08:48:56;;;;;;;9.35;3.90;;;23.10;49.50;;;;;;3581465;40;20402;-72
2021/06/01 08:51:23;;;;;;;5.15;3.78;;;23.10;49.40;;;;;;3578739;40;20035;-72
2021/06/01 08:53:51;;;;;;;7.47;3.40;;;23.20;49.40;;;;;;3577482;40;20294;-72
2021/06/01 08:56:18;;;;;;;7.53;3.85;;;23.30;49.60;;;;;;3576518;40;20155;-69
2021/06/01 08:58:47;;;;;;;5.00;3.13;;;23.40;49.90;;;;;;3579940;40;20040;-72
2021/06/01 09:01:13;;;;;;;4.88;3.28;;;23.50;49.70;;;;;;3576530;40;20025;-71
2021/06/01 09:03:46;;;;;;;9.27;3.90;;;23.60;49.60;;;;;;3573611;40;20419;-72
2021/06/01 09:22:44;;;;;;;6.60;3.08;;;24.30;46.20;;;;;;3576675;40;20035;-73
2021/06/01 09:25:18;;;;;;;7.82;3.35;;;24.50;44.80;;;;;;3577890;40;20040;-72
2021/06/01 09:27:52;;;;;;;6.00;3.78;;;24.70;45.20;;;;;;3581132;40;20141;-71
2021/06/01 09:30:43;;;;;;;4.97;3.20;;;24.80;43.60;;;;;;3570919;40;20414;-66
2021/06/01 09:33:16;;;;;;;6.82;2.97;;;24.90;43.60;;;;;;3578050;40;20033;-66
2021/06/01 09:35:54;;;;;;;5.88;2.90;;;24.90;42.30;;;;;;3576546;40;20393;-67
2021/06/01 09:38:23;;;;;;;4.03;2.80;;;24.90;42.70;;;;;;3575883;40;20104;-67
2021/06/01 09:41:03;;;;;;;7.07;3.03;;;24.80;42.10;;;;;;3576424;40;20060;-66
2021/06/01 09:43:29;;;;;;;5.07;2.90;;;24.80;41.70;;;;;;3573154;40;20076;-66
2021/06/01 09:45:55;;;;;;;3.58;2.67;;;24.80;40.50;;;;;;3576015;40;20632;-67
2021/06/01 09:48:24;;;;;;;7.32;3.20;;;24.80;41.70;;;;;;3574203;40;20037;-67
2021/06/01 09:50:55;;;;;;;4.13;2.38;;;24.80;42.10;;;;;;3568972;40;20897;-68
2021/06/01 09:53:32;;;;;;;4.65;2.42;;;24.80;41.40;;;;;;3571055;40;20083;-67
2021/06/01 09:56:00;;;;;;;3.40;2.70;;;24.90;40.10;;;;;;3571621;40;20033;-68
2021/06/01 09:58:33;;;;;;;3.03;2.28;;;24.80;39.60;;;;;;3570699;40;20137;-68
2021/06/01 10:01:01;;;;;;;3.72;2.15;;;24.70;40.10;;;;;;3574710;40;20045;-66
2021/06/01 10:03:35;;;;;;;5.35;2.60;;;24.70;40.30;;;;;;3573081;40;20035;-67
2021/06/01 10:06:01;;;;;;;5.45;3.72;;;24.80;38.90;;;;;;3577595;40;20080;-67
2021/06/01 10:08:28;;;;;;;6.25;2.85;;;24.80;38.80;;;;;;3577993;40;20033;-66
2021/06/01 10:11:01;;;;;;;6.72;3.35;;;24.80;39.10;;;;;;3576225;40;20420;-67
2021/06/01 10:13:29;;;;;;;3.60;2.70;;;25.00;39.60;;;;;;3573790;40;20044;-70
2021/06/01 10:15:58;;;;;;;24.10;4.25;;;25.30;38.60;;;;;;3573491;40;20044;-74
2021/06/01 10:18:29;;;;;;;3.38;2.30;;;25.40;37.90;;;;;;3573334;40;20031;-67
2021/06/01 10:21:00;;;;;;;5.22;2.63;;;25.50;38.50;;;;;;3570967;40;20033;-63
2021/06/01 10:23:30;;;;;;;15.20;4.13;;;25.50;38.10;;;;;;3572094;40;20033;-67
2021/06/01 10:25:56;;;;;;;7.07;2.58;;;25.50;37.70;;;;;;3573429;40;20039;-67
2021/06/01 10:28:38;;;;;;;2.67;2.20;;;25.50;37.30;;;;;;3574950;40;20050;-67
2021/06/01 10:31:06;;;;;;;4.25;2.50;;;25.40;37.90;;;;;;3575189;40;20103;-66
2021/06/01 10:33:43;;;;;;;9.40;3.63;;;25.50;38.40;;;;;;3579373;40;20138;-67
2021/06/01 10:53:17;;;;;;;2.60;2.38;;;26.20;37.70;;;;;;3576436;40;20048;-63
2021/06/01 10:55:49;;;;;;;4.75;2.78;;;26.70;36.40;;;;;;3573480;40;20027;-65
2021/06/01 10:58:16;;;;;;;5.80;2.58;;;26.70;36.10;;;;;;3575247;40;20080;-66
2021/06/01 11:03:18;;;;;;;4.25;2.70;;;26.60;37.00;;;;;;3575739;40;20052;-66
2021/06/01 11:06:08;;;;;;;3.45;2.53;;;26.60;38.20;;;;;;3577437;40;20021;-65
2021/06/01 11:08:43;;;;;;;3.70;2.38;;;26.70;38.00;;;;;;3574771;40;20113;-66
2021/06/01 11:11:35;;;;;;;3.45;2.70;;;26.80;37.30;;;;;;3576326;40;20713;-66
2021/06/01 11:14:22;;;;;;;3.03;2.50;;;26.80;39.30;;;;;;3578233;40;20419;-66
2021/06/01 11:16:59;;;;;;;6.10;3.05;;;26.80;38.50;;;;;;3562988;40;20045;-66
2021/06/01 11:19:31;;;;;;;7.10;2.70;;;26.70;38.30;;;;;;3573861;40;20110;-64
2021/06/01 11:22:00;;;;;;;15.98;3.80;;;26.70;37.90;;;;;;3575567;40;20037;-65
2021/06/01 11:35:27;;;;;;;10.32;3.45;;;26.30;37.60;;;;;;3576784;40;20068;-66
2021/06/01 11:43:10;;;;;;;2.60;2.40;;;26.20;37.20;;;;;;3571615;40;20036;-67
2021/06/01 11:46:16;;;;;;;5.40;2.50;;;26.10;38.10;;;;;;3575404;40;20424;-66
2021/06/01 11:51:22;;;;;;;16.15;4.90;;;26.20;37.50;;;;;;3573633;40;20096;-67
2021/06/01 11:54:06;;;;;;;8.38;2.88;;;26.20;38.70;;;;;;3571521;40;20045;-67
2021/06/01 11:56:34;;;;;;;4.57;2.53;;;26.30;37.70;;;;;;3573089;40;20056;-67
2021/06/01 12:04:34;;;;;;;10.40;3.17;;;26.30;37.50;;;;;;3578913;40;20141;-67
2021/06/01 12:13:30;;;;;;;3.05;2.47;;;26.40;37.70;;;;;;3573573;40;20021;-67
2021/06/01 12:18:28;;;;;;;4.03;2.78;;;26.30;37.70;;;;;;3577140;40;20126;-67
2021/06/01 12:20:54;;;;;;;3.88;2.60;;;26.20;36.80;;;;;;3577677;40;20036;-67
2021/06/01 12:23:36;;;;;;;2.67;2.42;;;26.10;37.90;;;;;;3571792;40;20391;-67
2021/06/01 12:26:21;;;;;;;3.30;2.55;;;25.90;38.60;;;;;;3576265;40;20036;-67
2021/06/01 12:31:55;;;;;;;12.25;3.38;;;26.00;38.80;;;;;;3573091;40;20170;-67
2021/06/01 12:34:31;;;;;;;6.90;2.88;;;26.10;39.50;;;;;;3576723;40;20037;-67
2021/06/01 13:09:00;;;;;;;5.75;2.60;;;26.40;37.90;;;;;;3572378;40;20096;-67
2021/06/01 13:20:03;;;;;;;4.20;2.10;;;26.50;37.80;;;;;;3575146;40;20032;-67
2021/06/01 13:46:09;;;;;;;7.55;3.08;;;26.20;38.80;;;;;;3574876;40;20032;-70
2021/06/01 13:56:21;;;;;;;3.45;2.20;;;26.10;38.70;;;;;;3574143;40;20025;-71
2021/06/01 13:59:06;;;;;;;4.00;2.90;;;26.00;38.60;;;;;;3576360;40;20033;-71
2021/06/01 14:54:40;;;;;;;3.25;1.42;;;25.30;35.90;;;;;;3575173;40;20044;-69
2021/06/01 15:07:22;;;;;;;1.60;1.33;;;25.00;34.80;;;;;;3575623;40;20060;-71
2021/06/01 15:50:35;;;;;;;2.25;1.20;;;24.40;38.70;;;;;;3572280;40;20059;-66
2021/06/01 16:32:42;;;;;;;2.58;1.30;;;23.70;41.20;;;;;;3573123;40;20950;-66
2021/06/01 16:43:17;;;;;;;2.63;1.20;;;23.60;39.40;;;;;;3578670;40;20039;-66
2021/06/01 17:05:10;;;;;;;1.60;1.50;;;23.00;41.00;;;;;;3575677;40;20039;-72
2021/06/01 17:13:10;;;;;;;2.42;1.23;;;22.80;37.90;;;;;;3570906;40;20077;-67
2021/06/01 17:15:37;;;;;;;3.00;1.65;;;22.70;37.80;;;;;;3574973;40;20035;-67
2021/06/01 17:18:18;;;;;;;4.25;2.00;;;22.70;40.90;;;;;;3575961;40;20287;-67
2021/06/01 17:36:54;;;;;;;5.97;1.87;;;22.30;41.30;;;;;;3575741;40;20099;-67
2021/06/01 17:39:20;;;;;;;4.15;2.08;;;22.30;43.50;;;;;;3576734;40;20048;-67
2021/06/01 17:41:48;;;;;;;4.40;1.63;;;22.20;43.80;;;;;;3573775;40;20033;-67
2021/06/01 17:44:16;;;;;;;2.38;1.60;;;22.10;44.50;;;;;;3574512;40;20040;-67
2021/06/01 17:46:44;;;;;;;4.63;1.77;;;22.00;42.00;;;;;;3574952;40;20041;-66
2021/06/01 17:49:13;;;;;;;3.25;1.80;;;21.90;43.80;;;;;;3578794;40;20040;-67
2021/06/01 17:51:41;;;;;;;2.80;1.77;;;21.90;45.80;;;;;;3580618;40;20031;-66
2021/06/01 17:54:07;;;;;;;2.17;1.70;;;21.80;46.10;;;;;;3571688;40;20040;-70
2021/06/01 17:56:34;;;;;;;2.00;1.50;;;21.70;45.10;;;;;;3574089;40;20025;-69
2021/06/01 17:59:00;;;;;;;2.00;1.80;;;21.70;44.80;;;;;;3575395;40;20130;-68
2021/06/01 18:01:30;;;;;;;1.85;1.65;;;21.70;43.90;;;;;;3575135;40;20025;-68
2021/06/01 18:04:02;;;;;;;3.38;1.80;;;21.70;45.80;;;;;;3573341;40;20036;-67
2021/06/01 18:06:39;;;;;;;1.85;1.65;;;21.60;45.30;;;;;;3571925;40;20035;-67
2021/06/01 18:09:32;;;;;;;3.35;2.05;;;21.50;46.40;;;;;;3576446;40;20041;-67
2021/06/01 18:12:10;;;;;;;2.72;1.70;;;21.40;47.90;;;;;;3574306;40;20068;-67
2021/06/01 19:26:46;;;;;;;2.67;2.35;;;19.60;58.10;;;;;;3573297;40;20043;-66
2021/06/01 19:50:54;;;;;;;9.45;3.40;;;19.20;62.30;;;;;;3570161;40;20037;-68
2021/06/01 19:53:22;;;;;;;5.55;3.50;;;19.20;62.40;;;;;;3573309;40;20036;-68
2021/06/01 19:55:48;;;;;;;6.20;3.00;;;19.10;62.20;;;;;;3568980;40;20060;-68
2021/06/01 19:58:15;;;;;;;2.90;2.35;;;19.10;61.00;;;;;;3575437;40;20780;-67
2021/06/01 20:00:44;;;;;;;4.10;2.88;;;19.00;60.30;;;;;;3571427;40;20033;-68
2021/06/01 20:03:10;;;;;;;3.38;2.30;;;19.00;61.10;;;;;;3578146;40;20128;-68
2021/06/01 20:05:39;;;;;;;3.53;2.28;;;19.10;59.90;;;;;;3573566;40;20037;-68
2021/06/01 20:08:07;;;;;;;4.43;2.50;;;18.90;59.40;;;;;;3576164;40;20053;-67
2021/06/01 20:10:32;;;;;;;3.45;2.45;;;19.00;60.30;;;;;;3577379;40;20073;-68
2021/06/01 20:13:02;;;;;;;3.40;1.90;;;18.90;60.50;;;;;;3577977;40;20041;-68
2021/06/01 20:15:38;;;;;;;4.25;2.13;;;18.90;59.60;;;;;;3574044;40;20027;-67